sensor_id;sensor_type;location;lat;lon;timestamp;P1;durP1;ratioP1;P2;durP2;ratioP2
45296;SDS011;31040;51.622;10.420;2023-04-24T00:02:12;2.30;;;0.70;;
45296;SDS011;31040;51.622;10.420;2023-04-24T00:04:41;1.50;;;0.98;;
45296;SDS011;31040;51.622;10.420;2023-04-24T00:07:11;1.10;;;0.82;;
45296;SDS011;31040;51.622;10.420;2023-04-24T00:09:40;1.23;;;0.65;;
45296;SDS011;31040;51.622;10.420;2023-04-24T00:12:08;2.15;;;0.80;;
45296;SDS011;31040;51.622;10.420;2023-04-24T00:14:36;0.73;;;0.73;;
45296;SDS011;31040;51.622;10.420;2023-04-24T00:17:03;0.95;;;0.70;;
45296;SDS011;31040;51.622;10.420;2023-04-24T00:19:31;0.95;;;0.90;;
45296;SDS011;31040;51.622;10.420;2023-04-24T00:21:58;1.38;;;0.90;;
45296;SDS011;31040;51.622;10.420;2023-04-24T00:24:26;1.65;;;0.85;;
45296;SDS011;31040;51.622;10.420;2023-04-24T00:26:53;1.33;;;0.90;;
45296;SDS011;31040;51.622;10.420;2023-04-24T00:29:20;0.98;;;0.88;;
45296;SDS011;31040;51.622;10.420;2023-04-24T00:31:48;0.68;;;0.65;;
45296;SDS011;31040;51.622;10.420;2023-04-24T00:34:15;0.80;;;0.80;;
45296;SDS011;31040;51.622;10.420;2023-04-24T00:36:43;1.60;;;0.98;;
45296;SDS011;31040;51.622;10.420;2023-04-24T00:39:10;1.20;;;1.10;;
45296;SDS011;31040;51.622;10.420;2023-04-24T00:41:38;1.65;;;1.10;;
45296;SDS011;31040;51.622;10.420;2023-04-24T00:44:05;0.90;;;0.90;;
45296;SDS011;31040;51.622;10.420;2023-04-24T00:46:33;1.15;;;0.98;;
45296;SDS011;31040;51.622;10.420;2023-04-24T00:49:01;1.00;;;0.93;;
45296;SDS011;31040;51.622;10.420;2023-04-24T00:51:29;1.80;;;0.75;;
45296;SDS011;31040;51.622;10.420;2023-04-24T00:53:59;2.65;;;1.10;;
45296;SDS011;31040;51.622;10.420;2023-04-24T00:56:27;0.98;;;0.75;;
45296;SDS011;31040;51.622;10.420;2023-04-24T00:58:55;2.90;;;1.00;;
45296;SDS011;31040;51.622;10.420;2023-04-24T01:01:22;1.38;;;1.17;;
45296;SDS011;31040;51.622;10.420;2023-04-24T01:03:50;1.05;;;1.00;;
45296;SDS011;31040;51.622;10.420;2023-04-24T01:06:19;2.03;;;0.95;;
45296;SDS011;31040;51.622;10.420;2023-04-24T01:08:47;0.93;;;0.93;;
45296;SDS011;31040;51.622;10.420;2023-04-24T01:11:14;0.95;;;0.80;;
45296;SDS011;31040;51.622;10.420;2023-04-24T01:13:42;1.20;;;0.95;;
45296;SDS011;31040;51.622;10.420;2023-04-24T01:16:09;0.93;;;0.93;;
45296;SDS011;31040;51.622;10.420;2023-04-24T01:18:37;0.90;;;0.90;;
45296;SDS011;31040;51.622;10.420;2023-04-24T01:21:04;1.13;;;0.88;;
45296;SDS011;31040;51.622;10.420;2023-04-24T01:23:32;0.80;;;0.75;;
45296;SDS011;31040;51.622;10.420;2023-04-24T01:26:00;0.50;;;0.50;;
45296;SDS011;31040;51.622;10.420;2023-04-24T01:28:27;0.80;;;0.80;;
45296;SDS011;31040;51.622;10.420;2023-04-24T01:30:55;1.63;;;1.08;;
45296;SDS011;31040;51.622;10.420;2023-04-24T01:33:22;0.82;;;0.82;;
45296;SDS011;31040;51.622;10.420;2023-04-24T01:35:50;0.90;;;0.90;;
45296;SDS011;31040;51.622;10.420;2023-04-24T01:38:18;1.13;;;0.77;;
45296;SDS011;31040;51.622;10.420;2023-04-24T01:40:45;1.60;;;0.80;;
45296;SDS011;31040;51.622;10.420;2023-04-24T01:43:13;1.17;;;0.73;;
45296;SDS011;31040;51.622;10.420;2023-04-24T01:45:40;0.40;;;0.40;;
45296;SDS011;31040;51.622;10.420;2023-04-24T01:48:08;0.70;;;0.60;;
45296;SDS011;31040;51.622;10.420;2023-04-24T01:50:35;1.55;;;0.65;;
45296;SDS011;31040;51.622;10.420;2023-04-24T01:53:03;0.82;;;0.63;;
45296;SDS011;31040;51.622;10.420;2023-04-24T01:55:30;0.65;;;0.65;;
45296;SDS011;31040;51.622;10.420;2023-04-24T01:57:58;0.60;;;0.60;;
45296;SDS011;31040;51.622;10.420;2023-04-24T02:00:26;0.73;;;0.60;;
45296;SDS011;31040;51.622;10.420;2023-04-24T02:02:53;0.60;;;0.60;;
45296;SDS011;31040;51.622;10.420;2023-04-24T02:05:21;0.73;;;0.68;;
45296;SDS011;31040;51.622;10.420;2023-04-24T02:07:48;1.88;;;0.63;;
45296;SDS011;31040;51.622;10.420;2023-04-24T02:10:16;0.60;;;0.60;;
45296;SDS011;31040;51.622;10.420;2023-04-24T02:12:43;0.75;;;0.65;;
45296;SDS011;31040;51.622;10.420;2023-04-24T02:15:10;0.52;;;0.52;;
45296;SDS011;31040;51.622;10.420;2023-04-24T02:17:38;1.38;;;0.70;;
45296;SDS011;31040;51.622;10.420;2023-04-24T02:20:09;0.75;;;0.75;;
45296;SDS011;31040;51.622;10.420;2023-04-24T02:22:36;0.50;;;0.50;;
45296;SDS011;31040;51.622;10.420;2023-04-24T02:25:04;1.35;;;0.60;;
45296;SDS011;31040;51.622;10.420;2023-04-24T02:27:31;0.40;;;0.40;;
45296;SDS011;31040;51.622;10.420;2023-04-24T02:29:59;1.10;;;0.57;;
45296;SDS011;31040;51.622;10.420;2023-04-24T02:32:26;0.60;;;0.60;;
45296;SDS011;31040;51.622;10.420;2023-04-24T02:34:54;0.50;;;0.50;;
45296;SDS011;31040;51.622;10.420;2023-04-24T02:37:21;0.65;;;0.55;;
45296;SDS011;31040;51.622;10.420;2023-04-24T02:39:48;1.70;;;0.70;;
45296;SDS011;31040;51.622;10.420;2023-04-24T02:42:16;0.93;;;0.50;;
45296;SDS011;31040;51.622;10.420;2023-04-24T02:44:43;1.48;;;0.68;;
45296;SDS011;31040;51.622;10.420;2023-04-24T02:47:11;0.88;;;0.50;;
45296;SDS011;31040;51.622;10.420;2023-04-24T02:49:38;0.52;;;0.50;;
45296;SDS011;31040;51.622;10.420;2023-04-24T02:52:06;0.90;;;0.90;;
45296;SDS011;31040;51.622;10.420;2023-04-24T02:54:33;1.95;;;0.77;;
45296;SDS011;31040;51.622;10.420;2023-04-24T02:57:00;0.60;;;0.60;;
45296;SDS011;31040;51.622;10.420;2023-04-24T02:59:28;1.08;;;0.90;;
45296;SDS011;31040;51.622;10.420;2023-04-24T03:01:55;1.35;;;0.65;;
45296;SDS011;31040;51.622;10.420;2023-04-24T03:04:23;0.52;;;0.52;;
45296;SDS011;31040;51.622;10.420;2023-04-24T03:06:50;0.90;;;0.60;;
45296;SDS011;31040;51.622;10.420;2023-04-24T03:09:19;0.60;;;0.55;;
45296;SDS011;31040;51.622;10.420;2023-04-24T03:11:46;1.85;;;0.68;;
45296;SDS011;31040;51.622;10.420;2023-04-24T03:14:15;0.57;;;0.47;;
45296;SDS011;31040;51.622;10.420;2023-04-24T03:16:42;0.70;;;0.70;;
45296;SDS011;31040;51.622;10.420;2023-04-24T03:19:09;1.38;;;0.77;;
45296;SDS011;31040;51.622;10.420;2023-04-24T03:21:37;0.60;;;0.60;;
45296;SDS011;31040;51.622;10.420;2023-04-24T03:24:07;3.50;;;1.27;;
45296;SDS011;31040;51.622;10.420;2023-04-24T03:26:35;1.70;;;0.80;;
45296;SDS011;31040;51.622;10.420;2023-04-24T03:29:02;0.70;;;0.70;;
45296;SDS011;31040;51.622;10.420;2023-04-24T03:31:30;0.82;;;0.82;;
45296;SDS011;31040;51.622;10.420;2023-04-24T03:33:57;1.42;;;0.70;;
45296;SDS011;31040;51.622;10.420;2023-04-24T03:36:24;1.02;;;0.80;;
45296;SDS011;31040;51.622;10.420;2023-04-24T03:38:52;2.88;;;1.00;;
45296;SDS011;31040;51.622;10.420;2023-04-24T03:41:19;0.90;;;0.70;;
45296;SDS011;31040;51.622;10.420;2023-04-24T03:43:48;1.38;;;0.90;;
45296;SDS011;31040;51.622;10.420;2023-04-24T03:46:15;0.90;;;0.80;;
45296;SDS011;31040;51.622;10.420;2023-04-24T03:48:43;0.70;;;0.70;;
45296;SDS011;31040;51.622;10.420;2023-04-24T03:51:10;0.65;;;0.65;;
45296;SDS011;31040;51.622;10.420;2023-04-24T03:53:38;2.10;;;1.08;;
45296;SDS011;31040;51.622;10.420;2023-04-24T03:56:05;0.70;;;0.70;;
45296;SDS011;31040;51.622;10.420;2023-04-24T03:58:32;1.23;;;0.82;;
45296;SDS011;31040;51.622;10.420;2023-04-24T04:01:00;0.95;;;0.82;;
45296;SDS011;31040;51.622;10.420;2023-04-24T04:03:27;1.02;;;0.77;;
45296;SDS011;31040;51.622;10.420;2023-04-24T04:05:55;1.63;;;0.90;;
45296;SDS011;31040;51.622;10.420;2023-04-24T04:08:22;1.30;;;0.75;;
45296;SDS011;31040;51.622;10.420;2023-04-24T04:10:49;1.42;;;0.80;;
45296;SDS011;31040;51.622;10.420;2023-04-24T04:13:19;1.08;;;0.73;;
45296;SDS011;31040;51.622;10.420;2023-04-24T04:15:47;2.35;;;1.30;;
45296;SDS011;31040;51.622;10.420;2023-04-24T04:18:14;2.00;;;1.10;;
45296;SDS011;31040;51.622;10.420;2023-04-24T04:20:42;1.50;;;0.90;;
45296;SDS011;31040;51.622;10.420;2023-04-24T04:23:09;2.50;;;1.15;;
45296;SDS011;31040;51.622;10.420;2023-04-24T04:25:36;1.98;;;1.10;;
45296;SDS011;31040;51.622;10.420;2023-04-24T04:28:04;1.75;;;1.25;;
45296;SDS011;31040;51.622;10.420;2023-04-24T04:30:31;1.38;;;1.27;;
45296;SDS011;31040;51.622;10.420;2023-04-24T04:32:59;7.50;;;1.85;;
45296;SDS011;31040;51.622;10.420;2023-04-24T04:35:27;1.52;;;1.30;;
45296;SDS011;31040;51.622;10.420;2023-04-24T04:37:54;3.53;;;1.20;;
45296;SDS011;31040;51.622;10.420;2023-04-24T04:40:25;0.80;;;0.80;;
45296;SDS011;31040;51.622;10.420;2023-04-24T04:42:54;2.45;;;1.20;;
45296;SDS011;31040;51.622;10.420;2023-04-24T04:45:22;1.45;;;1.35;;
45296;SDS011;31040;51.622;10.420;2023-04-24T04:47:50;3.88;;;1.30;;
45296;SDS011;31040;51.622;10.420;2023-04-24T04:50:18;2.90;;;2.17;;
45296;SDS011;31040;51.622;10.420;2023-04-24T04:52:45;1.50;;;1.40;;
45296;SDS011;31040;51.622;10.420;2023-04-24T04:55:13;1.65;;;1.27;;
45296;SDS011;31040;51.622;10.420;2023-04-24T04:57:41;3.28;;;1.42;;
45296;SDS011;31040;51.622;10.420;2023-04-24T05:00:08;2.90;;;1.17;;
45296;SDS011;31040;51.622;10.420;2023-04-24T05:02:37;3.25;;;1.30;;
45296;SDS011;31040;51.622;10.420;2023-04-24T05:05:05;2.33;;;1.30;;
45296;SDS011;31040;51.622;10.420;2023-04-24T05:07:33;3.03;;;1.13;;
45296;SDS011;31040;51.622;10.420;2023-04-24T05:10:01;3.20;;;1.27;;
45296;SDS011;31040;51.622;10.420;2023-04-24T05:12:28;2.75;;;1.35;;
45296;SDS011;31040;51.622;10.420;2023-04-24T05:14:56;3.47;;;1.13;;
45296;SDS011;31040;51.622;10.420;2023-04-24T05:17:23;2.15;;;1.30;;
45296;SDS011;31040;51.622;10.420;2023-04-24T05:19:50;1.55;;;1.45;;
45296;SDS011;31040;51.622;10.420;2023-04-24T05:22:18;4.10;;;1.50;;
45296;SDS011;31040;51.622;10.420;2023-04-24T05:24:47;1.30;;;1.20;;
45296;SDS011;31040;51.622;10.420;2023-04-24T05:27:14;2.53;;;1.75;;
45296;SDS011;31040;51.622;10.420;2023-04-24T05:29:42;3.47;;;1.77;;
45296;SDS011;31040;51.622;10.420;2023-04-24T05:32:10;2.60;;;2.40;;
45296;SDS011;31040;51.622;10.420;2023-04-24T05:34:37;3.70;;;1.83;;
45296;SDS011;31040;51.622;10.420;2023-04-24T05:37:05;3.63;;;2.00;;
45296;SDS011;31040;51.622;10.420;2023-04-24T05:39:37;3.28;;;1.90;;
45296;SDS011;31040;51.622;10.420;2023-04-24T05:42:04;3.85;;;1.60;;
45296;SDS011;31040;51.622;10.420;2023-04-24T05:44:31;5.95;;;1.67;;
45296;SDS011;31040;51.622;10.420;2023-04-24T05:46:59;6.80;;;1.90;;
45296;SDS011;31040;51.622;10.420;2023-04-24T05:49:27;1.70;;;1.55;;
45296;SDS011;31040;51.622;10.420;2023-04-24T05:51:54;1.98;;;1.80;;
45296;SDS011;31040;51.622;10.420;2023-04-24T05:54:21;2.03;;;1.70;;
45296;SDS011;31040;51.622;10.420;2023-04-24T05:56:49;1.35;;;1.23;;
45296;SDS011;31040;51.622;10.420;2023-04-24T05:59:17;2.53;;;1.27;;
45296;SDS011;31040;51.622;10.420;2023-04-24T06:01:45;1.80;;;1.30;;
45296;SDS011;31040;51.622;10.420;2023-04-24T06:04:13;0.93;;;0.93;;
45296;SDS011;31040;51.622;10.420;2023-04-24T06:06:41;2.25;;;1.20;;
45296;SDS011;31040;51.622;10.420;2023-04-24T06:09:08;1.58;;;1.40;;
45296;SDS011;31040;51.622;10.420;2023-04-24T06:11:36;1.27;;;1.00;;
45296;SDS011;31040;51.622;10.420;2023-04-24T06:14:03;2.65;;;1.00;;
45296;SDS011;31040;51.622;10.420;2023-04-24T06:16:30;3.38;;;1.40;;
45296;SDS011;31040;51.622;10.420;2023-04-24T06:18:58;2.22;;;1.08;;
45296;SDS011;31040;51.622;10.420;2023-04-24T06:21:25;1.15;;;0.90;;
45296;SDS011;31040;51.622;10.420;2023-04-24T06:23:54;1.05;;;0.95;;
45296;SDS011;31040;51.622;10.420;2023-04-24T06:26:22;1.90;;;1.10;;
45296;SDS011;31040;51.622;10.420;2023-04-24T06:28:51;2.30;;;0.90;;
45296;SDS011;31040;51.622;10.420;2023-04-24T06:31:20;0.93;;;0.93;;
45296;SDS011;31040;51.622;10.420;2023-04-24T06:33:48;1.27;;;1.17;;
45296;SDS011;31040;51.622;10.420;2023-04-24T06:36:16;1.92;;;0.93;;
45296;SDS011;31040;51.622;10.420;2023-04-24T06:38:43;1.67;;;0.80;;
45296;SDS011;31040;51.622;10.420;2023-04-24T06:41:11;1.23;;;0.88;;
45296;SDS011;31040;51.622;10.420;2023-04-24T06:43:39;1.00;;;0.90;;
45296;SDS011;31040;51.622;10.420;2023-04-24T06:46:06;0.70;;;0.70;;
45296;SDS011;31040;51.622;10.420;2023-04-24T06:48:34;0.70;;;0.70;;
45296;SDS011;31040;51.622;10.420;2023-04-24T06:51:01;0.77;;;0.77;;
45296;SDS011;31040;51.622;10.420;2023-04-24T06:53:28;1.30;;;0.70;;
45296;SDS011;31040;51.622;10.420;2023-04-24T06:55:56;1.17;;;0.70;;
45296;SDS011;31040;51.622;10.420;2023-04-24T06:58:24;0.85;;;0.85;;
45296;SDS011;31040;51.622;10.420;2023-04-24T07:00:51;0.70;;;0.70;;
45296;SDS011;31040;51.622;10.420;2023-04-24T07:03:19;1.35;;;0.80;;
45296;SDS011;31040;51.622;10.420;2023-04-24T07:05:48;1.35;;;1.25;;
45296;SDS011;31040;51.622;10.420;2023-04-24T07:08:15;0.82;;;0.80;;
45296;SDS011;31040;51.622;10.420;2023-04-24T07:10:44;1.40;;;1.02;;
45296;SDS011;31040;51.622;10.420;2023-04-24T07:13:11;0.93;;;0.93;;
45296;SDS011;31040;51.622;10.420;2023-04-24T07:15:38;1.75;;;0.85;;
45296;SDS011;31040;51.622;10.420;2023-04-24T07:18:07;0.88;;;0.82;;
45296;SDS011;31040;51.622;10.420;2023-04-24T07:20:34;0.90;;;0.90;;
45296;SDS011;31040;51.622;10.420;2023-04-24T07:23:02;2.80;;;1.48;;
45296;SDS011;31040;51.622;10.420;2023-04-24T07:25:29;1.98;;;1.50;;
45296;SDS011;31040;51.622;10.420;2023-04-24T07:27:57;1.80;;;0.93;;
45296;SDS011;31040;51.622;10.420;2023-04-24T07:30:25;1.58;;;1.20;;
45296;SDS011;31040;51.622;10.420;2023-04-24T07:32:52;1.10;;;1.00;;
45296;SDS011;31040;51.622;10.420;2023-04-24T07:35:20;2.00;;;1.33;;
45296;SDS011;31040;51.622;10.420;2023-04-24T07:37:47;2.13;;;1.40;;
45296;SDS011;31040;51.622;10.420;2023-04-24T07:40:14;1.48;;;1.38;;
45296;SDS011;31040;51.622;10.420;2023-04-24T07:42:42;1.50;;;1.40;;
45296;SDS011;31040;51.622;10.420;2023-04-24T07:45:10;1.88;;;1.50;;
45296;SDS011;31040;51.622;10.420;2023-04-24T07:47:37;1.30;;;1.20;;
45296;SDS011;31040;51.622;10.420;2023-04-24T07:50:06;1.40;;;1.30;;
45296;SDS011;31040;51.622;10.420;2023-04-24T07:52:34;2.53;;;2.15;;
45296;SDS011;31040;51.622;10.420;2023-04-24T07:55:01;1.10;;;1.00;;
45296;SDS011;31040;51.622;10.420;2023-04-24T07:57:29;1.88;;;1.40;;
45296;SDS011;31040;51.622;10.420;2023-04-24T07:59:56;1.30;;;1.20;;
45296;SDS011;31040;51.622;10.420;2023-04-24T08:02:24;1.67;;;1.58;;
45296;SDS011;31040;51.622;10.420;2023-04-24T08:04:53;2.13;;;1.52;;
45296;SDS011;31040;51.622;10.420;2023-04-24T08:07:22;1.92;;;1.83;;
45296;SDS011;31040;51.622;10.420;2023-04-24T08:09:50;1.73;;;1.60;;
45296;SDS011;31040;51.622;10.420;2023-04-24T08:12:17;2.05;;;1.50;;
45296;SDS011;31040;51.622;10.420;2023-04-24T08:14:45;2.53;;;1.63;;
45296;SDS011;31040;51.622;10.420;2023-04-24T08:17:12;2.75;;;1.77;;
45296;SDS011;31040;51.622;10.420;2023-04-24T08:19:40;1.60;;;1.50;;
45296;SDS011;31040;51.622;10.420;2023-04-24T08:22:17;1.75;;;1.20;;
45296;SDS011;31040;51.622;10.420;2023-04-24T08:24:44;2.85;;;1.35;;
45296;SDS011;31040;51.622;10.420;2023-04-24T08:27:12;2.35;;;1.50;;
45296;SDS011;31040;51.622;10.420;2023-04-24T08:29:39;1.60;;;1.50;;
45296;SDS011;31040;51.622;10.420;2023-04-24T08:32:07;1.60;;;1.50;;
45296;SDS011;31040;51.622;10.420;2023-04-24T08:34:34;1.35;;;1.23;;
45296;SDS011;31040;51.622;10.420;2023-04-24T08:37:02;1.60;;;1.50;;
45296;SDS011;31040;51.622;10.420;2023-04-24T08:39:29;3.25;;;1.60;;
45296;SDS011;31040;51.622;10.420;2023-04-24T08:41:57;2.13;;;1.80;;
45296;SDS011;31040;51.622;10.420;2023-04-24T08:44:32;1.33;;;1.23;;
45296;SDS011;31040;51.622;10.420;2023-04-24T08:47:00;1.70;;;1.60;;
45296;SDS011;31040;51.622;10.420;2023-04-24T08:49:28;1.60;;;1.50;;
45296;SDS011;31040;51.622;10.420;2023-04-24T08:51:55;2.40;;;2.20;;
45296;SDS011;31040;51.622;10.420;2023-04-24T08:54:24;1.70;;;1.60;;
45296;SDS011;31040;51.622;10.420;2023-04-24T08:56:52;2.38;;;2.10;;
45296;SDS011;31040;51.622;10.420;2023-04-24T08:59:21;3.17;;;2.00;;
45296;SDS011;31040;51.622;10.420;2023-04-24T09:01:48;2.38;;;1.80;;
45296;SDS011;31040;51.622;10.420;2023-04-24T09:04:17;1.73;;;1.63;;
45296;SDS011;31040;51.622;10.420;2023-04-24T09:06:48;2.10;;;1.90;;
45296;SDS011;31040;51.622;10.420;2023-04-24T09:09:16;1.73;;;1.63;;
45296;SDS011;31040;51.622;10.420;2023-04-24T09:11:46;2.20;;;2.00;;
45296;SDS011;31040;51.622;10.420;2023-04-24T09:14:16;3.28;;;2.00;;
45296;SDS011;31040;51.622;10.420;2023-04-24T09:16:44;2.40;;;2.20;;
45296;SDS011;31040;51.622;10.420;2023-04-24T09:19:12;2.55;;;2.30;;
45296;SDS011;31040;51.622;10.420;2023-04-24T09:21:39;3.22;;;2.10;;
45296;SDS011;31040;51.622;10.420;2023-04-24T09:24:17;2.50;;;2.30;;
45296;SDS011;31040;51.622;10.420;2023-04-24T09:26:46;2.65;;;2.45;;
45296;SDS011;31040;51.622;10.420;2023-04-24T09:29:14;2.20;;;1.98;;
45296;SDS011;31040;51.622;10.420;2023-04-24T09:31:43;3.22;;;2.00;;
45296;SDS011;31040;51.622;10.420;2023-04-24T09:34:11;1.80;;;1.70;;
45296;SDS011;31040;51.622;10.420;2023-04-24T09:36:42;1.67;;;1.52;;
45296;SDS011;31040;51.622;10.420;2023-04-24T09:39:11;2.20;;;1.90;;
45296;SDS011;31040;51.622;10.420;2023-04-24T09:44:16;2.72;;;2.17;;
45296;SDS011;31040;51.622;10.420;2023-04-24T09:46:45;2.33;;;2.05;;
45296;SDS011;31040;51.622;10.420;2023-04-24T09:49:13;2.08;;;1.98;;
45296;SDS011;31040;51.622;10.420;2023-04-24T09:51:42;2.47;;;2.28;;
45296;SDS011;31040;51.622;10.420;2023-04-24T09:54:19;5.00;;;2.25;;
45296;SDS011;31040;51.622;10.420;2023-04-24T09:56:51;2.70;;;2.20;;
45296;SDS011;31040;51.622;10.420;2023-04-24T09:59:18;3.35;;;2.30;;
45296;SDS011;31040;51.622;10.420;2023-04-24T10:01:46;2.53;;;2.10;;
45296;SDS011;31040;51.622;10.420;2023-04-24T10:04:20;2.63;;;2.40;;
45296;SDS011;31040;51.622;10.420;2023-04-24T10:06:48;3.17;;;2.22;;
45296;SDS011;31040;51.622;10.420;2023-04-24T10:09:19;2.65;;;1.90;;
45296;SDS011;31040;51.622;10.420;2023-04-24T10:11:47;1.83;;;1.73;;
45296;SDS011;31040;51.622;10.420;2023-04-24T10:14:16;3.97;;;2.05;;
45296;SDS011;31040;51.622;10.420;2023-04-24T10:16:43;1.73;;;1.63;;
45296;SDS011;31040;51.622;10.420;2023-04-24T10:19:13;2.50;;;2.00;;
45296;SDS011;31040;51.622;10.420;2023-04-24T10:21:42;2.80;;;2.60;;
45296;SDS011;31040;51.622;10.420;2023-04-24T10:24:13;2.40;;;2.20;;
45296;SDS011;31040;51.622;10.420;2023-04-24T10:26:41;2.80;;;1.67;;
45296;SDS011;31040;51.622;10.420;2023-04-24T10:29:11;2.45;;;2.25;;
45296;SDS011;31040;51.622;10.420;2023-04-24T10:31:39;1.90;;;1.80;;
45296;SDS011;31040;51.622;10.420;2023-04-24T10:34:07;2.88;;;2.40;;
45296;SDS011;31040;51.622;10.420;2023-04-24T10:36:36;2.90;;;2.55;;
45296;SDS011;31040;51.622;10.420;2023-04-24T10:39:06;2.95;;;2.65;;
45296;SDS011;31040;51.622;10.420;2023-04-24T10:41:36;4.93;;;2.67;;
45296;SDS011;31040;51.622;10.420;2023-04-24T10:44:07;2.80;;;2.40;;
45296;SDS011;31040;51.622;10.420;2023-04-24T10:46:36;4.35;;;2.80;;
45296;SDS011;31040;51.622;10.420;2023-04-24T10:49:04;2.70;;;2.50;;
45296;SDS011;31040;51.622;10.420;2023-04-24T10:56:50;2.53;;;2.33;;
45296;SDS011;31040;51.622;10.420;2023-04-24T10:59:27;2.03;;;1.83;;
45296;SDS011;31040;51.622;10.420;2023-04-24T11:01:55;2.63;;;1.95;;
45296;SDS011;31040;51.622;10.420;2023-04-24T11:04:28;2.83;;;2.63;;
45296;SDS011;31040;51.622;10.420;2023-04-24T11:06:57;2.80;;;2.60;;
45296;SDS011;31040;51.622;10.420;2023-04-24T11:09:27;2.35;;;2.15;;
45296;SDS011;31040;51.622;10.420;2023-04-24T11:12:04;3.38;;;3.05;;
45296;SDS011;31040;51.622;10.420;2023-04-24T11:22:52;3.15;;;2.95;;
45296;SDS011;31040;51.622;10.420;2023-04-24T11:25:21;8.55;;;3.13;;
45296;SDS011;31040;51.622;10.420;2023-04-24T11:27:49;2.78;;;2.58;;
45296;SDS011;31040;51.622;10.420;2023-04-24T11:30:20;3.72;;;2.88;;
45296;SDS011;31040;51.622;10.420;2023-04-24T11:32:47;3.33;;;2.50;;
45296;SDS011;31040;51.622;10.420;2023-04-24T11:35:17;3.28;;;2.72;;
45296;SDS011;31040;51.622;10.420;2023-04-24T11:37:45;2.72;;;2.53;;
45296;SDS011;31040;51.622;10.420;2023-04-24T11:40:35;2.72;;;2.50;;
45296;SDS011;31040;51.622;10.420;2023-04-24T11:43:05;2.50;;;2.30;;
45296;SDS011;31040;51.622;10.420;2023-04-24T11:45:33;2.33;;;2.10;;
45296;SDS011;31040;51.622;10.420;2023-04-24T11:48:02;2.05;;;1.85;;
45296;SDS011;31040;51.622;10.420;2023-04-24T11:50:30;1.30;;;1.17;;
45296;SDS011;31040;51.622;10.420;2023-04-24T11:52:57;2.00;;;1.85;;
45296;SDS011;31040;51.622;10.420;2023-04-24T11:55:27;1.92;;;1.52;;
45296;SDS011;31040;51.622;10.420;2023-04-24T11:57:56;2.40;;;1.88;;
45296;SDS011;31040;51.622;10.420;2023-04-24T12:00:27;2.35;;;1.90;;
45296;SDS011;31040;51.622;10.420;2023-04-24T12:03:06;1.83;;;1.52;;
45296;SDS011;31040;51.622;10.420;2023-04-24T12:05:34;1.73;;;1.63;;
45296;SDS011;31040;51.622;10.420;2023-04-24T12:08:01;2.53;;;1.80;;
45296;SDS011;31040;51.622;10.420;2023-04-24T12:10:29;4.15;;;1.80;;
45296;SDS011;31040;51.622;10.420;2023-04-24T12:12:58;2.75;;;2.38;;
45296;SDS011;31040;51.622;10.420;2023-04-24T12:15:29;2.30;;;2.10;;
45296;SDS011;31040;51.622;10.420;2023-04-24T12:17:56;2.63;;;2.42;;
45296;SDS011;31040;51.622;10.420;2023-04-24T12:20:28;2.10;;;1.83;;
45296;SDS011;31040;51.622;10.420;2023-04-24T12:22:56;2.53;;;1.70;;
45296;SDS011;31040;51.622;10.420;2023-04-24T12:25:24;1.85;;;1.63;;
45296;SDS011;31040;51.622;10.420;2023-04-24T12:27:53;1.80;;;1.70;;
45296;SDS011;31040;51.622;10.420;2023-04-24T12:30:25;1.98;;;1.60;;
45296;SDS011;31040;51.622;10.420;2023-04-24T12:32:53;2.08;;;1.88;;
45296;SDS011;31040;51.622;10.420;2023-04-24T12:35:22;1.70;;;1.60;;
45296;SDS011;31040;51.622;10.420;2023-04-24T12:37:50;2.15;;;1.58;;
45296;SDS011;31040;51.622;10.420;2023-04-24T12:40:18;1.52;;;1.42;;
45296;SDS011;31040;51.622;10.420;2023-04-24T12:42:46;1.00;;;1.00;;
45296;SDS011;31040;51.622;10.420;2023-04-24T12:45:14;0.88;;;0.75;;
45296;SDS011;31040;51.622;10.420;2023-04-24T12:47:42;0.90;;;0.90;;
45296;SDS011;31040;51.622;10.420;2023-04-24T12:50:11;1.20;;;1.05;;
45296;SDS011;31040;51.622;10.420;2023-04-24T12:52:38;1.60;;;1.05;;
45296;SDS011;31040;51.622;10.420;2023-04-24T12:55:06;0.90;;;0.90;;
45296;SDS011;31040;51.622;10.420;2023-04-24T12:57:35;1.25;;;1.05;;
45296;SDS011;31040;51.622;10.420;2023-04-24T13:00:02;1.38;;;1.00;;
45296;SDS011;31040;51.622;10.420;2023-04-24T13:02:30;0.95;;;0.95;;
45296;SDS011;31040;51.622;10.420;2023-04-24T13:04:58;0.90;;;0.90;;
45296;SDS011;31040;51.622;10.420;2023-04-24T13:07:26;1.05;;;1.02;;
45296;SDS011;31040;51.622;10.420;2023-04-24T13:09:55;2.38;;;1.85;;
45296;SDS011;31040;51.622;10.420;2023-04-24T13:12:22;0.80;;;0.80;;
45296;SDS011;31040;51.622;10.420;2023-04-24T13:14:50;0.80;;;0.75;;
45296;SDS011;31040;51.622;10.420;2023-04-24T13:17:17;0.70;;;0.68;;
45296;SDS011;31040;51.622;10.420;2023-04-24T13:19:45;0.60;;;0.43;;
45296;SDS011;31040;51.622;10.420;2023-04-24T13:22:12;0.30;;;0.30;;
45296;SDS011;31040;51.622;10.420;2023-04-24T13:24:40;0.45;;;0.30;;
45296;SDS011;31040;51.622;10.420;2023-04-24T13:27:08;0.30;;;0.25;;
45296;SDS011;31040;51.622;10.420;2023-04-24T13:29:36;0.20;;;0.20;;
45296;SDS011;31040;51.622;10.420;2023-04-24T13:32:03;0.20;;;0.20;;
45296;SDS011;31040;51.622;10.420;2023-04-24T13:34:31;0.35;;;0.30;;
45296;SDS011;31040;51.622;10.420;2023-04-24T13:37:01;0.30;;;0.30;;
45296;SDS011;31040;51.622;10.420;2023-04-24T13:39:30;0.20;;;0.20;;
45296;SDS011;31040;51.622;10.420;2023-04-24T13:41:58;0.32;;;0.32;;
45296;SDS011;31040;51.622;10.420;2023-04-24T13:44:28;0.40;;;0.40;;
45296;SDS011;31040;51.622;10.420;2023-04-24T13:46:55;0.60;;;0.60;;
45296;SDS011;31040;51.622;10.420;2023-04-24T13:49:24;0.50;;;0.50;;
45296;SDS011;31040;51.622;10.420;2023-04-24T13:51:52;0.60;;;0.60;;
45296;SDS011;31040;51.622;10.420;2023-04-24T13:54:20;0.47;;;0.47;;
45296;SDS011;31040;51.622;10.420;2023-04-24T13:56:49;1.58;;;0.50;;
45296;SDS011;31040;51.622;10.420;2023-04-24T13:59:17;0.40;;;0.40;;
45296;SDS011;31040;51.622;10.420;2023-04-24T14:01:44;0.50;;;0.50;;
45296;SDS011;31040;51.622;10.420;2023-04-24T14:04:12;0.43;;;0.32;;
45296;SDS011;31040;51.622;10.420;2023-04-24T14:06:40;0.30;;;0.30;;
45296;SDS011;31040;51.622;10.420;2023-04-24T14:09:07;0.25;;;0.25;;
45296;SDS011;31040;51.622;10.420;2023-04-24T14:11:35;0.38;;;0.35;;
45296;SDS011;31040;51.622;10.420;2023-04-24T14:14:02;1.92;;;0.40;;
45296;SDS011;31040;51.622;10.420;2023-04-24T14:16:29;0.55;;;0.40;;
45296;SDS011;31040;51.622;10.420;2023-04-24T14:18:57;0.40;;;0.40;;
45296;SDS011;31040;51.622;10.420;2023-04-24T14:21:25;0.95;;;0.40;;
45296;SDS011;31040;51.622;10.420;2023-04-24T14:23:52;0.57;;;0.57;;
45296;SDS011;31040;51.622;10.420;2023-04-24T14:26:20;1.25;;;0.68;;
45296;SDS011;31040;51.622;10.420;2023-04-24T14:28:48;2.13;;;1.38;;
45296;SDS011;31040;51.622;10.420;2023-04-24T14:31:17;0.60;;;0.57;;
45296;SDS011;31040;51.622;10.420;2023-04-24T14:33:45;1.33;;;1.23;;
45296;SDS011;31040;51.622;10.420;2023-04-24T14:36:12;0.88;;;0.88;;
45296;SDS011;31040;51.622;10.420;2023-04-24T14:38:40;0.73;;;0.70;;
45296;SDS011;31040;51.622;10.420;2023-04-24T14:41:07;0.60;;;0.60;;
45296;SDS011;31040;51.622;10.420;2023-04-24T14:43:39;1.15;;;0.80;;
45296;SDS011;31040;51.622;10.420;2023-04-24T14:46:06;1.05;;;0.90;;
45296;SDS011;31040;51.622;10.420;2023-04-24T14:48:34;1.38;;;0.80;;
45296;SDS011;31040;51.622;10.420;2023-04-24T14:51:01;0.60;;;0.60;;
45296;SDS011;31040;51.622;10.420;2023-04-24T14:53:29;0.70;;;0.70;;
45296;SDS011;31040;51.622;10.420;2023-04-24T14:55:56;0.77;;;0.70;;